sensor_id;sensor_type;location;lat;lon;timestamp;P1;durP1;ratioP1;P2;durP2;ratioP2
82900;SDS011;72673;50.822;3.280;2023-12-22T00:01:07;12.25;;;1.88;;
82900;SDS011;72673;50.822;3.280;2023-12-22T00:03:33;17.75;;;2.40;;
82900;SDS011;72673;50.822;3.280;2023-12-22T00:05:58;16.05;;;1.85;;
82900;SDS011;72673;50.822;3.280;2023-12-22T00:08:24;25.58;;;2.85;;
82900;SDS011;72673;50.822;3.280;2023-12-22T00:10:50;10.63;;;2.35;;
82900;SDS011;72673;50.822;3.280;2023-12-22T00:13:15;28.35;;;3.50;;
82900;SDS011;72673;50.822;3.280;2023-12-22T00:15:41;18.85;;;3.42;;
82900;SDS011;72673;50.822;3.280;2023-12-22T00:18:10;17.60;;;2.60;;
82900;SDS011;72673;50.822;3.280;2023-12-22T00:20:35;30.25;;;3.05;;
82900;SDS011;72673;50.822;3.280;2023-12-22T00:23:01;19.20;;;3.25;;
82900;SDS011;72673;50.822;3.280;2023-12-22T00:25:27;13.93;;;2.63;;
82900;SDS011;72673;50.822;3.280;2023-12-22T00:27:52;18.85;;;3.03;;
82900;SDS011;72673;50.822;3.280;2023-12-22T00:30:18;19.65;;;3.10;;
82900;SDS011;72673;50.822;3.280;2023-12-22T00:32:44;26.63;;;3.25;;
82900;SDS011;72673;50.822;3.280;2023-12-22T00:35:09;21.83;;;2.92;;
82900;SDS011;72673;50.822;3.280;2023-12-22T00:37:35;26.10;;;3.50;;
82900;SDS011;72673;50.822;3.280;2023-12-22T00:40:01;20.85;;;2.70;;
82900;SDS011;72673;50.822;3.280;2023-12-22T00:42:32;14.00;;;2.03;;
82900;SDS011;72673;50.822;3.280;2023-12-22T00:44:57;24.05;;;2.78;;
82900;SDS011;72673;50.822;3.280;2023-12-22T00:47:23;19.15;;;2.38;;
82900;SDS011;72673;50.822;3.280;2023-12-22T00:49:48;22.30;;;3.20;;
82900;SDS011;72673;50.822;3.280;2023-12-22T00:52:14;18.38;;;3.25;;
82900;SDS011;72673;50.822;3.280;2023-12-22T00:54:39;19.73;;;2.25;;
82900;SDS011;72673;50.822;3.280;2023-12-22T00:57:05;14.02;;;2.50;;
82900;SDS011;72673;50.822;3.280;2023-12-22T00:59:31;17.33;;;2.22;;
82900;SDS011;72673;50.822;3.280;2023-12-22T01:01:56;22.23;;;2.90;;
82900;SDS011;72673;50.822;3.280;2023-12-22T01:04:22;22.15;;;2.72;;
82900;SDS011;72673;50.822;3.280;2023-12-22T01:06:47;16.20;;;2.30;;
82900;SDS011;72673;50.822;3.280;2023-12-22T01:09:13;19.20;;;2.63;;
82900;SDS011;72673;50.822;3.280;2023-12-22T01:11:40;17.20;;;2.85;;
82900;SDS011;72673;50.822;3.280;2023-12-22T01:14:06;12.18;;;2.28;;
82900;SDS011;72673;50.822;3.280;2023-12-22T01:16:32;13.70;;;2.53;;
82900;SDS011;72673;50.822;3.280;2023-12-22T01:18:58;21.83;;;2.72;;
82900;SDS011;72673;50.822;3.280;2023-12-22T01:21:23;23.35;;;2.20;;
82900;SDS011;72673;50.822;3.280;2023-12-22T01:23:49;22.48;;;5.15;;
82900;SDS011;72673;50.822;3.280;2023-12-22T01:26:15;14.80;;;2.10;;
82900;SDS011;72673;50.822;3.280;2023-12-22T01:28:40;7.55;;;0.95;;
82900;SDS011;72673;50.822;3.280;2023-12-22T01:31:06;13.05;;;1.58;;
82900;SDS011;72673;50.822;3.280;2023-12-22T01:33:32;13.63;;;1.80;;
82900;SDS011;72673;50.822;3.280;2023-12-22T01:35:57;16.42;;;2.30;;
82900;SDS011;72673;50.822;3.280;2023-12-22T01:38:23;22.00;;;2.35;;
82900;SDS011;72673;50.822;3.280;2023-12-22T01:40:49;11.20;;;1.90;;
82900;SDS011;72673;50.822;3.280;2023-12-22T01:43:14;13.55;;;1.63;;
82900;SDS011;72673;50.822;3.280;2023-12-22T01:45:43;14.02;;;1.80;;
82900;SDS011;72673;50.822;3.280;2023-12-22T01:48:09;13.65;;;2.08;;
82900;SDS011;72673;50.822;3.280;2023-12-22T01:50:35;16.02;;;2.10;;
82900;SDS011;72673;50.822;3.280;2023-12-22T01:53:02;18.40;;;2.85;;
82900;SDS011;72673;50.822;3.280;2023-12-22T01:55:28;18.25;;;2.22;;
82900;SDS011;72673;50.822;3.280;2023-12-22T01:57:54;19.75;;;2.15;;
82900;SDS011;72673;50.822;3.280;2023-12-22T02:00:21;19.63;;;2.72;;
82900;SDS011;72673;50.822;3.280;2023-12-22T02:02:47;18.42;;;2.83;;
82900;SDS011;72673;50.822;3.280;2023-12-22T02:05:13;20.70;;;2.85;;
82900;SDS011;72673;50.822;3.280;2023-12-22T02:07:42;21.40;;;2.83;;
82900;SDS011;72673;50.822;3.280;2023-12-22T02:10:08;17.90;;;2.03;;
82900;SDS011;72673;50.822;3.280;2023-12-22T02:12:37;21.67;;;3.00;;
82900;SDS011;72673;50.822;3.280;2023-12-22T02:15:03;15.35;;;2.85;;
82900;SDS011;72673;50.822;3.280;2023-12-22T02:20:02;23.35;;;3.80;;
82900;SDS011;72673;50.822;3.280;2023-12-22T02:22:29;24.75;;;3.95;;
82900;SDS011;72673;50.822;3.280;2023-12-22T02:24:54;10.15;;;1.90;;
82900;SDS011;72673;50.822;3.280;2023-12-22T02:30:01;25.35;;;3.28;;
82900;SDS011;72673;50.822;3.280;2023-12-22T02:32:49;19.10;;;2.60;;
82900;SDS011;72673;50.822;3.280;2023-12-22T02:35:19;21.90;;;2.63;;
82900;SDS011;72673;50.822;3.280;2023-12-22T02:37:46;21.75;;;2.67;;
82900;SDS011;72673;50.822;3.280;2023-12-22T02:40:13;26.75;;;3.40;;
82900;SDS011;72673;50.822;3.280;2023-12-22T02:42:40;16.92;;;2.70;;
82900;SDS011;72673;50.822;3.280;2023-12-22T02:45:10;24.67;;;2.95;;
82900;SDS011;72673;50.822;3.280;2023-12-22T02:47:42;22.48;;;2.85;;
82900;SDS011;72673;50.822;3.280;2023-12-22T02:50:08;33.25;;;3.45;;
82900;SDS011;72673;50.822;3.280;2023-12-22T02:52:34;21.75;;;2.60;;
82900;SDS011;72673;50.822;3.280;2023-12-22T02:55:01;12.48;;;2.10;;
82900;SDS011;72673;50.822;3.280;2023-12-22T02:57:27;29.40;;;3.30;;
82900;SDS011;72673;50.822;3.280;2023-12-22T02:59:52;23.45;;;3.00;;
82900;SDS011;72673;50.822;3.280;2023-12-22T03:02:18;19.80;;;3.00;;
82900;SDS011;72673;50.822;3.280;2023-12-22T03:04:44;24.90;;;3.45;;
82900;SDS011;72673;50.822;3.280;2023-12-22T03:07:11;17.15;;;2.33;;
82900;SDS011;72673;50.822;3.280;2023-12-22T03:09:37;25.50;;;3.05;;
82900;SDS011;72673;50.822;3.280;2023-12-22T03:12:03;10.77;;;2.13;;
82900;SDS011;72673;50.822;3.280;2023-12-22T03:14:29;17.67;;;2.70;;
82900;SDS011;72673;50.822;3.280;2023-12-22T03:16:55;25.88;;;2.90;;
82900;SDS011;72673;50.822;3.280;2023-12-22T03:19:21;26.98;;;3.15;;
82900;SDS011;72673;50.822;3.280;2023-12-22T03:21:50;21.08;;;2.45;;
82900;SDS011;72673;50.822;3.280;2023-12-22T03:24:16;33.17;;;3.30;;
82900;SDS011;72673;50.822;3.280;2023-12-22T03:26:43;21.23;;;3.08;;
82900;SDS011;72673;50.822;3.280;2023-12-22T03:29:09;15.60;;;3.20;;
82900;SDS011;72673;50.822;3.280;2023-12-22T03:31:34;18.48;;;3.33;;
82900;SDS011;72673;50.822;3.280;2023-12-22T03:34:00;27.80;;;3.03;;
82900;SDS011;72673;50.822;3.280;2023-12-22T03:36:26;19.77;;;2.92;;
82900;SDS011;72673;50.822;3.280;2023-12-22T03:38:51;25.65;;;3.53;;
82900;SDS011;72673;50.822;3.280;2023-12-22T03:41:17;24.80;;;3.58;;
82900;SDS011;72673;50.822;3.280;2023-12-22T03:43:43;21.70;;;3.08;;
82900;SDS011;72673;50.822;3.280;2023-12-22T03:46:08;22.58;;;3.42;;
82900;SDS011;72673;50.822;3.280;2023-12-22T03:48:34;27.10;;;3.45;;
82900;SDS011;72673;50.822;3.280;2023-12-22T03:51:00;22.92;;;3.00;;
82900;SDS011;72673;50.822;3.280;2023-12-22T03:53:25;25.85;;;3.53;;
82900;SDS011;72673;50.822;3.280;2023-12-22T03:55:51;31.60;;;3.88;;
82900;SDS011;72673;50.822;3.280;2023-12-22T03:58:16;19.75;;;2.30;;
82900;SDS011;72673;50.822;3.280;2023-12-22T04:00:42;20.50;;;2.60;;
82900;SDS011;72673;50.822;3.280;2023-12-22T04:03:08;29.65;;;3.67;;
82900;SDS011;72673;50.822;3.280;2023-12-22T04:05:33;20.30;;;2.67;;
82900;SDS011;72673;50.822;3.280;2023-12-22T04:07:59;16.52;;;2.83;;
82900;SDS011;72673;50.822;3.280;2023-12-22T04:10:24;18.38;;;2.60;;
82900;SDS011;72673;50.822;3.280;2023-12-22T04:12:50;27.40;;;3.58;;
82900;SDS011;72673;50.822;3.280;2023-12-22T04:15:16;15.80;;;2.70;;
82900;SDS011;72673;50.822;3.280;2023-12-22T04:17:41;22.92;;;3.20;;
82900;SDS011;72673;50.822;3.280;2023-12-22T04:20:07;20.77;;;2.42;;
82900;SDS011;72673;50.822;3.280;2023-12-22T04:22:33;25.88;;;2.85;;
82900;SDS011;72673;50.822;3.280;2023-12-22T04:24:59;18.35;;;3.05;;
82900;SDS011;72673;50.822;3.280;2023-12-22T04:27:24;22.52;;;2.97;;
82900;SDS011;72673;50.822;3.280;2023-12-22T04:29:50;18.15;;;2.58;;
82900;SDS011;72673;50.822;3.280;2023-12-22T04:32:16;16.65;;;3.20;;
82900;SDS011;72673;50.822;3.280;2023-12-22T04:34:41;19.80;;;3.22;;
82900;SDS011;72673;50.822;3.280;2023-12-22T04:37:07;21.80;;;3.38;;
82900;SDS011;72673;50.822;3.280;2023-12-22T04:39:33;26.38;;;2.92;;
82900;SDS011;72673;50.822;3.280;2023-12-22T04:41:58;17.35;;;2.38;;
82900;SDS011;72673;50.822;3.280;2023-12-22T04:44:24;14.45;;;2.05;;
82900;SDS011;72673;50.822;3.280;2023-12-22T04:46:50;16.40;;;2.80;;
82900;SDS011;72673;50.822;3.280;2023-12-22T04:49:16;14.65;;;2.30;;
82900;SDS011;72673;50.822;3.280;2023-12-22T04:51:42;11.35;;;2.22;;
82900;SDS011;72673;50.822;3.280;2023-12-22T04:54:07;16.90;;;2.92;;
82900;SDS011;72673;50.822;3.280;2023-12-22T04:56:33;12.70;;;2.17;;
82900;SDS011;72673;50.822;3.280;2023-12-22T04:58:59;12.85;;;1.75;;
82900;SDS011;72673;50.822;3.280;2023-12-22T05:01:24;16.05;;;2.30;;
82900;SDS011;72673;50.822;3.280;2023-12-22T05:03:50;14.00;;;3.00;;
82900;SDS011;72673;50.822;3.280;2023-12-22T05:06:16;14.20;;;2.08;;
82900;SDS011;72673;50.822;3.280;2023-12-22T05:08:42;9.55;;;2.00;;
82900;SDS011;72673;50.822;3.280;2023-12-22T05:11:07;17.15;;;2.40;;
82900;SDS011;72673;50.822;3.280;2023-12-22T05:13:33;15.48;;;2.50;;
82900;SDS011;72673;50.822;3.280;2023-12-22T05:15:59;13.73;;;1.70;;
82900;SDS011;72673;50.822;3.280;2023-12-22T05:18:25;11.02;;;1.48;;
82900;SDS011;72673;50.822;3.280;2023-12-22T05:20:51;5.32;;;1.38;;
82900;SDS011;72673;50.822;3.280;2023-12-22T05:23:18;11.57;;;1.58;;
82900;SDS011;72673;50.822;3.280;2023-12-22T05:25:44;13.30;;;2.38;;
82900;SDS011;72673;50.822;3.280;2023-12-22T05:28:10;8.90;;;1.42;;
82900;SDS011;72673;50.822;3.280;2023-12-22T05:30:35;9.75;;;1.92;;
82900;SDS011;72673;50.822;3.280;2023-12-22T05:33:01;11.57;;;1.98;;
82900;SDS011;72673;50.822;3.280;2023-12-22T05:35:27;10.52;;;1.45;;
82900;SDS011;72673;50.822;3.280;2023-12-22T05:37:52;10.32;;;1.58;;
82900;SDS011;72673;50.822;3.280;2023-12-22T05:40:18;12.10;;;1.48;;
82900;SDS011;72673;50.822;3.280;2023-12-22T05:42:44;13.23;;;1.10;;
82900;SDS011;72673;50.822;3.280;2023-12-22T05:45:09;7.97;;;1.45;;
82900;SDS011;72673;50.822;3.280;2023-12-22T05:47:36;8.02;;;1.52;;
82900;SDS011;72673;50.822;3.280;2023-12-22T05:50:02;9.02;;;1.30;;
82900;SDS011;72673;50.822;3.280;2023-12-22T05:52:29;8.63;;;1.25;;
82900;SDS011;72673;50.822;3.280;2023-12-22T05:54:54;10.82;;;1.35;;
82900;SDS011;72673;50.822;3.280;2023-12-22T05:57:20;7.45;;;1.02;;
82900;SDS011;72673;50.822;3.280;2023-12-22T05:59:46;13.82;;;1.42;;
82900;SDS011;72673;50.822;3.280;2023-12-22T06:02:11;6.15;;;0.82;;
82900;SDS011;72673;50.822;3.280;2023-12-22T06:04:38;7.80;;;1.23;;
82900;SDS011;72673;50.822;3.280;2023-12-22T06:07:05;6.10;;;0.90;;
82900;SDS011;72673;50.822;3.280;2023-12-22T06:09:30;3.55;;;1.05;;
82900;SDS011;72673;50.822;3.280;2023-12-22T06:11:56;9.43;;;0.90;;
82900;SDS011;72673;50.822;3.280;2023-12-22T06:14:22;7.40;;;1.00;;
82900;SDS011;72673;50.822;3.280;2023-12-22T06:16:48;6.45;;;0.77;;
82900;SDS011;72673;50.822;3.280;2023-12-22T06:19:15;4.15;;;0.73;;
82900;SDS011;72673;50.822;3.280;2023-12-22T06:21:41;6.38;;;0.65;;
82900;SDS011;72673;50.822;3.280;2023-12-22T06:24:07;4.55;;;0.88;;
82900;SDS011;72673;50.822;3.280;2023-12-22T06:26:33;9.63;;;0.80;;
82900;SDS011;72673;50.822;3.280;2023-12-22T06:28:59;4.20;;;1.02;;
82900;SDS011;72673;50.822;3.280;2023-12-22T06:31:25;6.68;;;0.90;;
82900;SDS011;72673;50.822;3.280;2023-12-22T06:33:51;9.18;;;1.00;;
82900;SDS011;72673;50.822;3.280;2023-12-22T06:38:52;9.65;;;0.90;;
82900;SDS011;72673;50.822;3.280;2023-12-22T06:41:23;8.45;;;1.25;;
82900;SDS011;72673;50.822;3.280;2023-12-22T06:43:50;6.30;;;1.15;;
82900;SDS011;72673;50.822;3.280;2023-12-22T06:46:16;3.35;;;0.77;;
82900;SDS011;72673;50.822;3.280;2023-12-22T06:48:43;2.60;;;1.02;;
82900;SDS011;72673;50.822;3.280;2023-12-22T06:53:46;12.38;;;1.60;;
82900;SDS011;72673;50.822;3.280;2023-12-22T06:58:45;7.30;;;1.08;;
82900;SDS011;72673;50.822;3.280;2023-12-22T07:01:12;5.10;;;1.52;;
82900;SDS011;72673;50.822;3.280;2023-12-22T07:03:43;6.85;;;1.40;;
82900;SDS011;72673;50.822;3.280;2023-12-22T07:06:09;5.97;;;1.60;;
82900;SDS011;72673;50.822;3.280;2023-12-22T07:08:34;7.95;;;2.05;;
82900;SDS011;72673;50.822;3.280;2023-12-22T07:11:00;5.32;;;1.40;;
82900;SDS011;72673;50.822;3.280;2023-12-22T07:13:26;6.95;;;1.50;;
82900;SDS011;72673;50.822;3.280;2023-12-22T07:15:51;6.30;;;1.40;;
82900;SDS011;72673;50.822;3.280;2023-12-22T07:18:17;7.53;;;1.42;;
82900;SDS011;72673;50.822;3.280;2023-12-22T07:20:42;7.97;;;1.63;;
82900;SDS011;72673;50.822;3.280;2023-12-22T07:23:09;6.97;;;1.60;;
82900;SDS011;72673;50.822;3.280;2023-12-22T07:25:36;13.68;;;1.85;;
82900;SDS011;72673;50.822;3.280;2023-12-22T07:28:03;7.55;;;1.40;;
82900;SDS011;72673;50.822;3.280;2023-12-22T07:30:30;9.98;;;1.60;;
82900;SDS011;72673;50.822;3.280;2023-12-22T07:32:55;3.80;;;0.82;;
82900;SDS011;72673;50.822;3.280;2023-12-22T07:35:21;13.38;;;1.75;;
82900;SDS011;72673;50.822;3.280;2023-12-22T07:37:46;6.40;;;1.13;;
82900;SDS011;72673;50.822;3.280;2023-12-22T07:40:12;4.30;;;1.00;;
82900;SDS011;72673;50.822;3.280;2023-12-22T07:42:38;3.88;;;1.08;;
82900;SDS011;72673;50.822;3.280;2023-12-22T07:45:04;8.63;;;2.20;;
82900;SDS011;72673;50.822;3.280;2023-12-22T07:47:30;7.47;;;1.38;;
82900;SDS011;72673;50.822;3.280;2023-12-22T07:49:57;5.88;;;1.00;;
82900;SDS011;72673;50.822;3.280;2023-12-22T07:52:23;6.70;;;0.93;;
82900;SDS011;72673;50.822;3.280;2023-12-22T07:54:48;8.02;;;0.88;;
82900;SDS011;72673;50.822;3.280;2023-12-22T07:57:14;6.10;;;0.75;;
82900;SDS011;72673;50.822;3.280;2023-12-22T07:59:40;6.65;;;0.98;;
82900;SDS011;72673;50.822;3.280;2023-12-22T08:02:05;8.25;;;1.48;;
82900;SDS011;72673;50.822;3.280;2023-12-22T08:04:31;6.97;;;1.15;;
82900;SDS011;72673;50.822;3.280;2023-12-22T08:06:57;7.22;;;0.82;;
82900;SDS011;72673;50.822;3.280;2023-12-22T08:09:23;2.35;;;0.40;;
82900;SDS011;72673;50.822;3.280;2023-12-22T08:11:48;2.67;;;1.00;;
82900;SDS011;72673;50.822;3.280;2023-12-22T08:14:17;2.80;;;0.50;;
82900;SDS011;72673;50.822;3.280;2023-12-22T08:16:47;9.20;;;1.50;;
82900;SDS011;72673;50.822;3.280;2023-12-22T08:19:12;10.55;;;1.30;;
82900;SDS011;72673;50.822;3.280;2023-12-22T08:21:38;3.70;;;0.85;;
82900;SDS011;72673;50.822;3.280;2023-12-22T08:24:04;6.32;;;1.40;;
82900;SDS011;72673;50.822;3.280;2023-12-22T08:26:29;5.10;;;0.77;;
82900;SDS011;72673;50.822;3.280;2023-12-22T08:28:55;2.90;;;0.80;;
82900;SDS011;72673;50.822;3.280;2023-12-22T08:31:21;10.13;;;1.02;;
82900;SDS011;72673;50.822;3.280;2023-12-22T08:33:46;3.78;;;0.60;;
82900;SDS011;72673;50.822;3.280;2023-12-22T08:36:12;3.95;;;0.73;;
82900;SDS011;72673;50.822;3.280;2023-12-22T08:38:38;10.98;;;0.63;;
82900;SDS011;72673;50.822;3.280;2023-12-22T08:41:06;5.80;;;0.90;;
82900;SDS011;72673;50.822;3.280;2023-12-22T08:43:33;3.17;;;0.80;;
82900;SDS011;72673;50.822;3.280;2023-12-22T08:45:58;6.28;;;0.88;;
82900;SDS011;72673;50.822;3.280;2023-12-22T08:48:24;2.38;;;0.50;;
82900;SDS011;72673;50.822;3.280;2023-12-22T08:50:49;2.45;;;0.70;;
82900;SDS011;72673;50.822;3.280;2023-12-22T08:53:15;7.07;;;0.82;;
82900;SDS011;72673;50.822;3.280;2023-12-22T08:55:40;3.42;;;0.90;;
82900;SDS011;72673;50.822;3.280;2023-12-22T08:58:06;3.35;;;1.10;;
82900;SDS011;72673;50.822;3.280;2023-12-22T09:00:32;7.00;;;0.75;;
82900;SDS011;72673;50.822;3.280;2023-12-22T09:02:57;2.40;;;0.75;;
82900;SDS011;72673;50.822;3.280;2023-12-22T09:05:23;6.15;;;0.68;;
82900;SDS011;72673;50.822;3.280;2023-12-22T09:07:48;7.75;;;0.80;;
82900;SDS011;72673;50.822;3.280;2023-12-22T09:10:14;8.40;;;1.55;;
82900;SDS011;72673;50.822;3.280;2023-12-22T09:12:40;4.50;;;1.10;;
82900;SDS011;72673;50.822;3.280;2023-12-22T09:15:05;3.53;;;0.70;;
82900;SDS011;72673;50.822;3.280;2023-12-22T09:17:31;6.80;;;0.80;;
82900;SDS011;72673;50.822;3.280;2023-12-22T09:19:57;10.32;;;1.80;;
82900;SDS011;72673;50.822;3.280;2023-12-22T09:22:23;3.22;;;0.75;;
82900;SDS011;72673;50.822;3.280;2023-12-22T09:24:49;2.90;;;0.73;;
82900;SDS011;72673;50.822;3.280;2023-12-22T09:27:14;4.35;;;0.40;;
82900;SDS011;72673;50.822;3.280;2023-12-22T09:29:40;6.18;;;0.70;;
82900;SDS011;72673;50.822;3.280;2023-12-22T09:32:05;2.67;;;0.52;;
82900;SDS011;72673;50.822;3.280;2023-12-22T09:34:31;4.72;;;0.95;;
82900;SDS011;72673;50.822;3.280;2023-12-22T09:36:57;3.72;;;0.75;;
82900;SDS011;72673;50.822;3.280;2023-12-22T09:39:22;1.67;;;0.47;;
82900;SDS011;72673;50.822;3.280;2023-12-22T09:41:48;9.30;;;2.28;;
82900;SDS011;72673;50.822;3.280;2023-12-22T09:44:18;2.90;;;0.40;;
82900;SDS011;72673;50.822;3.280;2023-12-22T09:46:46;5.93;;;1.23;;
82900;SDS011;72673;50.822;3.280;2023-12-22T09:49:17;1.83;;;0.60;;
82900;SDS011;72673;50.822;3.280;2023-12-22T09:51:44;3.10;;;0.70;;
82900;SDS011;72673;50.822;3.280;2023-12-22T09:54:10;3.15;;;0.60;;
82900;SDS011;72673;50.822;3.280;2023-12-22T09:56:38;3.97;;;0.43;;
82900;SDS011;72673;50.822;3.280;2023-12-22T09:59:09;3.40;;;0.68;;
82900;SDS011;72673;50.822;3.280;2023-12-22T10:01:37;3.30;;;0.50;;
82900;SDS011;72673;50.822;3.280;2023-12-22T10:04:11;2.63;;;0.50;;
82900;SDS011;72673;50.822;3.280;2023-12-22T10:06:40;1.00;;;0.30;;
82900;SDS011;72673;50.822;3.280;2023-12-22T10:09:06;3.00;;;0.70;;
82900;SDS011;72673;50.822;3.280;2023-12-22T10:11:34;5.47;;;1.13;;
82900;SDS011;72673;50.822;3.280;2023-12-22T10:14:01;3.28;;;0.82;;
82900;SDS011;72673;50.822;3.280;2023-12-22T10:16:28;11.02;;;0.77;;
82900;SDS011;72673;50.822;3.280;2023-12-22T10:18:55;5.13;;;0.70;;
82900;SDS011;72673;50.822;3.280;2023-12-22T10:21:20;5.45;;;0.70;;
82900;SDS011;72673;50.822;3.280;2023-12-22T10:23:46;1.10;;;0.60;;
82900;SDS011;72673;50.822;3.280;2023-12-22T10:26:12;5.35;;;0.50;;
82900;SDS011;72673;50.822;3.280;2023-12-22T10:28:37;2.30;;;0.68;;
82900;SDS011;72673;50.822;3.280;2023-12-22T10:31:03;5.82;;;1.73;;
82900;SDS011;72673;50.822;3.280;2023-12-22T10:33:31;4.53;;;0.30;;
82900;SDS011;72673;50.822;3.280;2023-12-22T10:36:00;1.42;;;0.38;;
82900;SDS011;72673;50.822;3.280;2023-12-22T10:38:27;3.08;;;0.50;;
82900;SDS011;72673;50.822;3.280;2023-12-22T10:40:58;2.78;;;0.63;;
82900;SDS011;72673;50.822;3.280;2023-12-22T10:43:24;4.22;;;0.70;;
82900;SDS011;72673;50.822;3.280;2023-12-22T10:45:51;3.90;;;0.40;;
82900;SDS011;72673;50.822;3.280;2023-12-22T10:48:17;1.30;;;0.40;;
82900;SDS011;72673;50.822;3.280;2023-12-22T10:50:43;3.65;;;0.60;;
82900;SDS011;72673;50.822;3.280;2023-12-22T10:53:10;5.88;;;1.38;;
82900;SDS011;72673;50.822;3.280;2023-12-22T10:55:36;1.40;;;0.40;;
82900;SDS011;72673;50.822;3.280;2023-12-22T10:58:02;3.92;;;0.82;;
82900;SDS011;72673;50.822;3.280;2023-12-22T11:00:28;1.92;;;0.45;;
82900;SDS011;72673;50.822;3.280;2023-12-22T11:02:59;3.50;;;0.73;;
82900;SDS011;72673;50.822;3.280;2023-12-22T11:05:28;0.75;;;0.30;;
82900;SDS011;72673;50.822;3.280;2023-12-22T11:07:54;5.68;;;0.57;;
82900;SDS011;72673;50.822;3.280;2023-12-22T11:10:22;5.93;;;1.20;;
82900;SDS011;72673;50.822;3.280;2023-12-22T11:12:49;1.40;;;0.60;;
82900;SDS011;72673;50.822;3.280;2023-12-22T11:15:16;2.55;;;0.90;;
82900;SDS011;72673;50.822;3.280;2023-12-22T11:17:44;5.55;;;0.80;;
82900;SDS011;72673;50.822;3.280;2023-12-22T11:20:14;2.30;;;0.50;;
82900;SDS011;72673;50.822;3.280;2023-12-22T11:22:40;6.85;;;0.57;;
82900;SDS011;72673;50.822;3.280;2023-12-22T11:25:07;2.00;;;0.50;;
82900;SDS011;72673;50.822;3.280;2023-12-22T11:27:34;3.83;;;0.70;;
82900;SDS011;72673;50.822;3.280;2023-12-22T11:30:02;2.92;;;1.13;;
82900;SDS011;72673;50.822;3.280;2023-12-22T11:32:33;4.18;;;0.68;;
82900;SDS011;72673;50.822;3.280;2023-12-22T11:34:59;6.80;;;0.60;;
82900;SDS011;72673;50.822;3.280;2023-12-22T11:37:25;0.95;;;0.32;;
82900;SDS011;72673;50.822;3.280;2023-12-22T11:39:51;2.92;;;0.30;;
82900;SDS011;72673;50.822;3.280;2023-12-22T11:42:28;5.78;;;0.50;;
82900;SDS011;72673;50.822;3.280;2023-12-22T11:45:01;1.10;;;0.17;;
82900;SDS011;72673;50.822;3.280;2023-12-22T11:47:27;2.25;;;0.63;;
82900;SDS011;72673;50.822;3.280;2023-12-22T11:49:54;3.20;;;1.00;;
82900;SDS011;72673;50.822;3.280;2023-12-22T11:52:27;5.35;;;0.63;;
82900;SDS011;72673;50.822;3.280;2023-12-22T11:54:53;6.57;;;0.60;;
82900;SDS011;72673;50.822;3.280;2023-12-22T11:57:41;3.00;;;0.47;;
82900;SDS011;72673;50.822;3.280;2023-12-22T12:02:53;3.28;;;0.50;;
82900;SDS011;72673;50.822;3.280;2023-12-22T12:05:20;1.92;;;0.28;;
82900;SDS011;72673;50.822;3.280;2023-12-22T12:07:46;1.40;;;0.40;;
82900;SDS011;72673;50.822;3.280;2023-12-22T12:13:06;2.72;;;0.50;;
82900;SDS011;72673;50.822;3.280;2023-12-22T12:15:33;7.13;;;0.40;;
82900;SDS011;72673;50.822;3.280;2023-12-22T12:17:59;1.20;;;0.45;;
82900;SDS011;72673;50.822;3.280;2023-12-22T12:20:25;3.60;;;0.43;;
82900;SDS011;72673;50.822;3.280;2023-12-22T12:22:52;1.42;;;0.50;;
82900;SDS011;72673;50.822;3.280;2023-12-22T12:25:19;0.25;;;0.20;;
82900;SDS011;72673;50.822;3.280;2023-12-22T12:27:50;1.73;;;0.47;;
82900;SDS011;72673;50.822;3.280;2023-12-22T12:30:25;0.70;;;0.43;;
82900;SDS011;72673;50.822;3.280;2023-12-22T12:32:51;2.67;;;0.60;;
82900;SDS011;72673;50.822;3.280;2023-12-22T12:35:18;5.20;;;0.65;;
82900;SDS011;72673;50.822;3.280;2023-12-22T12:37:44;2.50;;;0.73;;
82900;SDS011;72673;50.822;3.280;2023-12-22T12:40:12;2.72;;;0.40;;
82900;SDS011;72673;50.822;3.280;2023-12-22T12:42:43;1.77;;;0.60;;
82900;SDS011;72673;50.822;3.280;2023-12-22T12:45:09;3.85;;;0.50;;
82900;SDS011;72673;50.822;3.280;2023-12-22T12:47:35;6.65;;;0.85;;
82900;SDS011;72673;50.822;3.280;2023-12-22T12:50:01;2.83;;;0.40;;
82900;SDS011;72673;50.822;3.280;2023-12-22T12:52:28;6.00;;;0.73;;
82900;SDS011;72673;50.822;3.280;2023-12-22T12:54:54;6.70;;;0.60;;
82900;SDS011;72673;50.822;3.280;2023-12-22T12:57:20;4.18;;;0.90;;
82900;SDS011;72673;50.822;3.280;2023-12-22T12:59:47;3.05;;;0.50;;
82900;SDS011;72673;50.822;3.280;2023-12-22T13:02:16;2.40;;;0.55;;
82900;SDS011;72673;50.822;3.280;2023-12-22T13:04:43;6.53;;;0.70;;
82900;SDS011;72673;50.822;3.280;2023-12-22T13:07:09;4.28;;;0.70;;
82900;SDS011;72673;50.822;3.280;2023-12-22T13:09:35;6.10;;;1.23;;
82900;SDS011;72673;50.822;3.280;2023-12-22T13:12:01;4.68;;;0.50;;
82900;SDS011;72673;50.822;3.280;2023-12-22T13:14:28;0.88;;;0.30;;
82900;SDS011;72673;50.822;3.280;2023-12-22T13:16:54;3.20;;;0.50;;
82900;SDS011;72673;50.822;3.280;2023-12-22T13:19:21;3.35;;;0.52;;
82900;SDS011;72673;50.822;3.280;2023-12-22T13:21:49;3.88;;;0.52;;
82900;SDS011;72673;50.822;3.280;2023-12-22T13:24:16;2.35;;;0.40;;
82900;SDS011;72673;50.822;3.280;2023-12-22T13:26:42;9.93;;;0.85;;
82900;SDS011;72673;50.822;3.280;2023-12-22T13:29:09;3.85;;;1.00;;
82900;SDS011;72673;50.822;3.280;2023-12-22T13:31:39;8.18;;;1.42;;
82900;SDS011;72673;50.822;3.280;2023-12-22T13:34:12;4.85;;;1.00;;
82900;SDS011;72673;50.822;3.280;2023-12-22T13:36:38;3.28;;;0.47;;
82900;SDS011;72673;50.822;3.280;2023-12-22T13:39:05;5.03;;;0.95;;
82900;SDS011;72673;50.822;3.280;2023-12-22T13:41:34;4.93;;;0.93;;
82900;SDS011;72673;50.822;3.280;2023-12-22T13:44:03;2.17;;;0.43;;
82900;SDS011;72673;50.822;3.280;2023-12-22T13:46:29;1.60;;;0.50;;
82900;SDS011;72673;50.822;3.280;2023-12-22T13:48:55;2.80;;;0.40;;
82900;SDS011;72673;50.822;3.280;2023-12-22T13:51:22;3.25;;;0.55;;
82900;SDS011;72673;50.822;3.280;2023-12-22T13:53:48;6.00;;;0.65;;
82900;SDS011;72673;50.822;3.280;2023-12-22T13:56:14;3.75;;;0.65;;
82900;SDS011;72673;50.822;3.280;2023-12-22T13:58:46;5.38;;;0.70;;
82900;SDS011;72673;50.822;3.280;2023-12-22T14:01:14;11.68;;;1.30;;
82900;SDS011;72673;50.822;3.280;2023-12-22T14:03:43;2.20;;;0.80;;
82900;SDS011;72673;50.822;3.280;2023-12-22T14:06:11;4.57;;;0.60;;
82900;SDS011;72673;50.822;3.280;2023-12-22T14:08:40;3.38;;;0.77;;
82900;SDS011;72673;50.822;3.280;2023-12-22T14:11:09;2.92;;;0.70;;
82900;SDS011;72673;50.822;3.280;2023-12-22T14:13:34;7.82;;;1.50;;
82900;SDS011;72673;50.822;3.280;2023-12-22T14:16:05;4.00;;;0.70;;
82900;SDS011;72673;50.822;3.280;2023-12-22T14:18:31;7.97;;;1.02;;
82900;SDS011;72673;50.822;3.280;2023-12-22T14:20:56;11.15;;;0.90;;
82900;SDS011;72673;50.822;3.280;2023-12-22T14:23:23;4.55;;;0.77;;
82900;SDS011;72673;50.822;3.280;2023-12-22T14:25:49;2.63;;;0.50;;
82900;SDS011;72673;50.822;3.280;2023-12-22T14:28:14;5.65;;;1.05;;
82900;SDS011;72673;50.822;3.280;2023-12-22T14:30:40;6.18;;;0.95;;
82900;SDS011;72673;50.822;3.280;2023-12-22T14:33:06;5.13;;;0.85;;
82900;SDS011;72673;50.822;3.280;2023-12-22T14:35:31;4.47;;;0.85;;
82900;SDS011;72673;50.822;3.280;2023-12-22T14:37:57;6.47;;;0.70;;
82900;SDS011;72673;50.822;3.280;2023-12-22T14:40:22;4.53;;;1.17;;
82900;SDS011;72673;50.822;3.280;2023-12-22T14:42:48;9.75;;;1.27;;
82900;SDS011;72673;50.822;3.280;2023-12-22T14:45:14;8.00;;;0.95;;
82900;SDS011;72673;50.822;3.280;2023-12-22T14:47:40;8.57;;;1.40;;
82900;SDS011;72673;50.822;3.280;2023-12-22T14:50:05;6.22;;;1.25;;
82900;SDS011;72673;50.822;3.280;2023-12-22T14:52:31;6.50;;;1.42;;
82900;SDS011;72673;50.822;3.280;2023-12-22T14:54:58;3.03;;;0.65;;
82900;SDS011;72673;50.822;3.280;2023-12-22T14:57:24;5.43;;;1.10;;